Portada
METAR-TAF:

METAR-TAF

Aeroports :

Tarakan, Indonèsia

latitud: 03-19-36N, longitud: 117-33-56E, altitud: 6 m

Observació

L'informe es va fer fa 40 minuts, a les 03:00 UTC
Vent 4 kt del Nord
Temperatura 28°C
Humitat 79%
Pressió 1011 hPa
Visibilitat: 8000 m
Cel ennuvolat a una alçada de 1500 ft
pluja

METAR: WAQQ 210300Z 36004KT 8000 -RA BKN015 28/24 Q1011

Hora: 10:40 (03:40 UTC)

Pronòstic

L'informe es va fer fa 4 hores i 40 minuts, a les 23:00 UTC
Pronòstic vàlid del 21 a les 00 UTC al 21 a les 12 UTC
Vent 5 kt del Nord/Nord-Est
Visibilitat: 8000 m
Núvols disperses a una alçada de 1500 ft

TAF: WAQQ 202300Z 2100/2112 02005KT 8000 SCT015

Observacions i pronòstics meteorològics de més de 4000 aeroports (METAR i TAF).

Les estacions disponibles són els punts grocs i vermells al mapa.

Posi el ratolí al punt desitjat per veure el nom de l'estació.

Feu clic per veure les observacions i els pronòstics meteorològics.

Per canviar el mapa: feu clic els botons verds amb una creu de color negre per apropar; al botó verd amb un guió per allunyar la imatge; o en les fletxes verdes per a mapes adjacents.


METAR-TAF: